Date,TemperatureHighF,TemperatureAvgF,TemperatureLowF,DewpointHighF,DewpointAvgF,DewpointLowF,HumidityHigh,HumidityAvg,HumidityLow,PressureMaxIn,PressureMinIn,WindSpeedMaxMPH,WindSpeedAvgMPH,GustSpeedMaxMPH,PrecipitationSumIn
2013-1-11,44.6,42.8,40.6,43.0,40.1,37.6,94,90,87,29.98,29.90,13,8,20,0.15
2013-1-12,56.5,48.8,39.7,50.0,45.6,38.8,99,89,78,30.01,29.95,8,3,20,0.00
2013-1-13,65.4,55.7,46.9,57.2,52.0,45.6,99,88,74,29.97,29.73,14,5,24,0.00
2013-1-14,52.9,33.6,26.5,51.8,28.9,21.2,98,83,73,30.38,29.72,21,8,24,0.00
2013-1-15,31.8,27.5,25.5,22.3,20.7,18.7,82,75,65,30.42,30.19,6,2,20,0.00
2013-1-16,36.7,31.2,27.3,30.1,25.4,20.5,89,79,59,30.18,29.80,11,3,20,0.00
2013-1-17,33.2,24.0,15.2,29.4,20.4,13.3,92,86,76,30.18,29.86,14,5,20,0.00
2013-1-18,15.0,13.4,11.6,13.1,10.9,8.3,92,89,80,30.43,30.17,7,2,20,0.00
2013-1-20,25.5,20.7,16.7,21.7,13.8,7.0,90,75,62,30.07,29.79,26,14,35,0.03
2013-1-21,16.5,16.0,15.4,9.3,7.4,5.4,75,68,63,30.07,30.02,9,4,35,0.00
2013-1-23,10.2,9.4,8.8,7.3,5.9,5.0,88,86,84,30.18,30.15,4,2,6,0.00
2013-1-24,12.2,8.1,2.8,8.2,3.4,-1.3,88,81,69,30.56,30.12,10,4,13,0.00
2013-1-25,14.0,9.1,2.7,9.4,4.6,-0.2,89,82,68,30.55,30.11,6,2,7,0.00
2013-1-26,26.1,13.4,1.2,13.3,7.8,-1.8,91,79,56,30.44,30.13,5,1,8,0.05
2013-1-27,29.8,21.9,17.5,20.4,16.1,13.2,91,79,59,30.59,30.38,4,1,7,0.02
2013-1-28,44.6,35.8,20.7,43.9,32.9,16.7,99,89,57,30.37,29.87,15,5,21,0.25
2013-1-29,55.7,44.0,35.2,53.8,43.0,34.5,100,96,92,30.05,29.75,10,3,11,0.51
2013-1-30,61.8,57.3,53.3,56.0,52.2,50.4,93,83,74,29.74,29.02,16,9,25,0.20
2013-1-31,54.1,27.9,19.1,51.8,22.8,12.5,93,81,65,29.71,29.01,25,16,45,0.12
2013-2-1,19.8,17.4,15.3,14.6,11.5,8.6,89,78,64,30.22,29.71,17,10,21,0.00
2013-2-2,19.0,15.4,11.7,14.7,9.9,5.0,89,79,70,30.22,29.99,13,5,17,0.00
2013-2-3,23.7,16.6,7.2,15.4,11.5,4.7,94,81,56,30.00,29.81,11,3,14,0.00
2013-2-4,18.3,16.8,14.5,14.5,11.3,7.2,89,79,65,29.99,29.89,14,6,22,0.00
2013-2-5,26.6,20.7,14.2,19.3,15.8,12.1,92,81,70,29.98,29.86,6,1,7,0.00
2013-2-6,25.5,22.5,13.0,23.7,16.3,9.9,93,77,58,30.39,29.90,15,6,16,0.00
2013-2-7,31.6,22.3,9.7,23.0,16.2,7.1,91,78,61,30.43,30.08,6,2,12,0.00
2013-2-8,36.2,29.3,16.4,33.9,25.8,14.5,97,87,70,30.09,29.75,7,1,11,0.14
2013-2-9,19.4,15.6,7.7,16.7,13.2,5.4,93,90,85,30.45,30.10,0,0,4,0.00
2013-2-10,38.9,23.2,3.4,26.9,15.0,0.7,92,73,50,30.44,29.99,12,2,17,0.08
2013-2-11,50.3,38.1,31.7,42.1,30.8,23.0,89,75,54,29.99,29.56,23,12,29,0.04
2013-2-12,31.9,30.7,29.2,28.7,25.8,22.6,90,82,73,29.98,29.73,18,11,33,0.00
2013-2-13,40.6,30.7,24.6,28.2,24.1,21.8,90,77,56,29.92,29.72,7,1,8,0.00
2013-2-14,40.5,31.6,24.8,34.2,27.5,22.0,94,85,63,29.93,29.78,8,3,11,0.09
2013-2-15,37.8,31.3,22.0,34.6,23.9,14.4,91,74,60,30.06,29.78,17,10,25,0.00
2013-2-16,29.1,22.7,17.4,19.6,14.4,9.3,92,71,47,30.07,29.93,7,2,9,0.00
2013-2-17,17.4,12.8,10.1,15.1,8.6,2.4,92,83,69,30.23,29.91,16,7,19,0.00
2013-2-18,35.2,21.5,9.4,21.5,12.7,5.0,86,70,49,30.32,29.94,10,3,12,0.00
2013-2-19,41.8,33.0,22.3,36.9,26.1,17.6,92,77,54,29.94,29.55,19,9,24,0.13
2013-2-20,22.2,19.0,16.4,19.0,14.6,10.4,91,83,74,30.10,29.75,20,12,28,0.00
2013-2-21,19.3,17.1,13.0,16.1,12.7,9.1,87,82,77,30.45,30.07,22,8,24,0.00
2013-2-22,33.5,26.1,19.0,28.2,22.1,15.8,90,85,75,30.42,30.02,10,4,24,0.00
2013-2-23,36.7,31.8,29.3,32.1,28.0,23.0,92,86,77,30.04,29.87,11,4,24,0.02
2013-2-24,29.5,28.6,27.8,25.1,23.7,21.8,87,82,77,30.08,29.86,14,8,24,0.00
2013-2-25,33.7,30.4,26.2,27.3,25.6,23.8,91,82,71,30.24,30.08,9,3,24,0.00
2013-2-26,40.2,31.2,18.5,32.1,26.3,17.0,98,83,63,30.24,29.77,17,4,24,0.34
2013-2-27,37.8,33.7,32.0,35.7,32.7,31.4,98,96,89,29.77,29.57,7,1,24,0.63
2013-2-28,34.7,32.9,31.7,32.1,31.0,30.2,98,93,85,29.73,29.53,9,5,24,0.19
2013-3-1,31.7,26.7,23.9,31.2,25.0,20.9,98,93,86,29.94,29.73,11,6,24,0.00
2013-3-2,24.1,21.0,18.9,21.6,16.1,-99.9,92,87,82,29.96,29.90,9,-14,24,0.00
2013-3-3,22.0,20.7,18.8,19.6,17.9,15.7,93,89,81,29.93,29.87,15,7,24,0.00
2013-3-4,26.7,22.9,19.1,23.3,19.0,15.8,89,85,78,30.07,29.93,14,10,24,0.00
2013-3-5,34.6,24.9,20.3,25.5,20.7,18.0,93,84,67,30.11,29.97,8,4,24,0.06
2013-3-6,38.9,28.9,18.3,31.5,25.9,17.0,96,89,71,30.15,29.95,6,2,11,0.00
2013-3-7,35.3,32.1,28.6,32.3,29.8,27.1,98,91,81,30.28,30.14,6,1,8,0.00
2013-3-8,37.9,32.5,28.1,28.1,26.2,24.1,96,78,61,30.41,30.27,10,4,13,0.02
2013-3-9,49.6,36.3,23.3,33.7,28.7,21.5,96,75,48,30.42,30.23,3,0,8,0.00
2013-3-10,60.5,49.9,32.1,34.8,29.0,24.4,82,46,34,30.23,29.96,10,5,17,0.00
2013-3-11,56.3,51.7,48.9,46.2,33.0,28.9,82,49,42,29.97,29.64,13,7,19,0.00
2013-3-12,51.4,37.4,32.4,47.4,33.4,27.2,93,85,79,29.92,29.65,14,7,20,0.11
2013-3-13,35.6,29.9,20.5,29.1,23.8,16.1,95,78,59,29.96,29.83,16,9,23,0.01
2013-3-14,29.7,21.1,16.8,18.2,13.4,5.8,91,74,40,30.07,29.96,22,12,28,0.00
2013-3-25,39.0,34.3,30.5,29.9,27.6,25.6,83,77,65,29.74,29.60,8,3,10,0.00
2013-3-26,44.6,36.5,30.8,33.6,29.2,26.3,85,75,57,29.95,29.74,11,5,15,0.00
2013-3-27,41.1,34.0,30.0,33.5,30.0,25.6,95,85,71,30.06,29.92,13,7,18,0.00
2013-3-28,39.9,35.0,31.3,34.3,31.6,29.5,96,88,73,30.21,30.05,11,6,16,0.02
2013-3-29,47.7,39.3,34.5,35.2,31.7,28.4,89,75,52,30.21,30.13,11,6,17,0.00
2013-3-30,47.7,39.1,30.4,30.9,27.1,24.2,84,63,43,30.20,30.05,10,4,14,0.00
2013-3-31,54.4,43.1,32.6,41.7,32.3,24.5,91,67,44,30.05,29.61,12,5,19,0.04
2013-4-1,44.1,33.4,24.9,40.7,28.2,18.1,95,82,59,29.95,29.56,18,10,25,0.06
2013-4-2,31.0,25.8,21.5,25.3,19.2,14.1,93,76,63,30.13,29.95,18,11,26,0.00
2013-4-3,32.9,27.6,24.3,24.6,19.4,16.0,86,72,51,30.40,30.13,20,9,20,0.00
2013-4-4,53.6,37.0,24.2,25.8,19.5,15.3,79,53,22,30.37,29.93,10,4,18,0.00
2013-4-5,41.7,36.2,26.9,28.9,23.1,16.8,74,59,40,30.17,29.87,13,6,22,0.00
2013-4-6,37.4,27.4,22.2,24.2,19.3,17.0,85,72,55,30.33,30.17,4,1,9,0.00
2013-4-12,53.7,19.0,37.2,49.9,-40.8,-99.9,100,37,85,29.78,29.53,17,-583,20,0.34
2013-4-13,42.9,26.1,36.3,35.9,-10.9,-99.9,89,54,65,29.93,29.76,15,-327,22,0.00
2013-4-14,45.9,38.5,33.4,33.8,30.0,26.1,86,72,52,30.18,29.93,12,6,18,0.01
2013-4-15,71.5,53.7,33.0,50.1,41.2,29.0,90,65,42,30.16,29.98,14,4,18,0.00
2013-4-16,64.6,56.4,45.4,57.7,50.5,37.7,97,81,69,30.20,29.94,15,7,23,0.10
2013-4-17,56.8,45.7,35.3,41.5,35.3,31.2,89,68,49,30.33,30.19,7,2,15,0.00
2013-4-18,72.8,60.6,41.5,59.6,50.8,33.8,81,71,62,30.21,29.68,16,8,23,0.00
2013-4-19,70.4,56.6,39.9,59.8,48.7,30.1,89,75,65,29.72,29.33,19,11,27,0.09
2013-4-20,39.8,35.2,30.2,31.3,27.2,21.4,92,73,57,30.41,29.71,21,12,29,0.00
2013-4-21,46.4,34.7,25.5,31.2,24.4,20.3,84,67,48,30.68,30.41,6,2,9,0.00
2013-4-22,58.7,44.7,28.1,33.2,26.5,20.5,84,52,31,30.60,30.33,11,4,13,0.00
2013-4-23,66.1,51.4,36.9,38.8,33.4,27.8,74,52,29,30.33,29.93,10,3,14,0.00
2013-4-24,67.9,52.6,35.8,54.6,43.1,32.3,91,71,54,29.99,29.56,17,8,24,0.07
2013-4-25,54.2,42.9,35.3,37.9,32.7,26.6,89,70,37,30.30,30.00,17,7,21,0.01
2013-4-26,52.7,43.9,35.9,37.3,32.2,26.7,91,66,39,30.47,30.30,8,3,11,0.01
2013-4-27,70.6,53.2,34.9,43.1,36.2,29.9,84,56,31,30.43,30.20,4,1,9,0.00
2013-4-28,70.8,56.5,44.1,48.2,41.2,35.2,85,60,28,30.20,29.98,12,3,17,0.09
2013-4-29,63.1,55.8,49.0,53.3,48.4,43.3,85,76,69,30.03,29.93,9,4,13,0.05
2013-4-30,70.7,61.5,55.7,54.9,52.3,50.3,87,73,54,30.18,30.02,11,5,20,0.00
2013-5-1,78.2,65.7,55.0,52.9,46.4,30.0,83,54,26,30.30,30.18,7,3,12,0.00
2013-5-2,77.5,66.4,53.5,45.1,37.3,32.2,57,35,21,30.36,30.21,9,4,13,0.00
2013-5-3,77.2,64.2,48.2,49.2,43.6,39.7,79,50,31,30.26,30.15,11,3,15,0.00
2013-5-4,74.9,63.3,50.1,45.1,40.6,34.9,64,45,29,30.23,30.08,8,3,17,0.00
2013-5-5,78.0,63.1,47.1,50.4,41.4,31.9,79,50,23,30.17,30.03,6,2,9,0.00
2013-5-6,78.9,62.0,45.5,45.5,38.3,31.1,69,45,21,30.11,29.97,6,2,9,0.00
2013-5-7,79.9,65.7,50.1,56.7,51.2,44.9,92,62,34,30.08,29.95,7,2,11,0.00
2013-5-8,62.5,56.8,53.2,56.6,51.9,49.6,91,84,70,30.01,29.97,2,0,9,0.01
2013-5-11,54.6,22.4,51.9,50.2,-38.1,-99.9,88,34,78,29.75,29.70,10,-579,13,0.02
2013-5-12,45.7,26.8,34.7,35.6,-12.5,-99.9,94,50,58,29.93,29.67,27,-326,27,0.00
2013-5-13,36.7,36.6,36.5,30.6,30.2,29.7,79,77,76,29.94,29.93,14,11,15,0.00
2013-5-28,64.5,61.3,59.7,62.9,60.5,58.7,99,97,93,29.98,29.90,9,2,12,0.72
2013-5-29,74.7,66.5,64.1,67.2,63.5,61.4,98,90,73,29.93,29.88,12,5,13,0.31
2013-6-3,60.7,55.6,48.6,49.3,45.8,43.5,86,70,56,30.01,29.92,10,6,16,0.00
2013-6-4,64.7,53.7,47.3,46.3,42.4,36.0,86,67,37,30.13,30.00,9,5,10,0.00
2013-6-6,55.5,55.0,54.7,55.2,54.6,54.2,99,99,98,29.86,29.81,7,2,9,1.12
2013-6-7,58.7,56.9,55.4,58.3,56.7,55.2,100,100,98,29.83,29.77,3,0,9,0.65
2013-6-8,61.9,58.1,54.9,58.0,55.9,52.7,100,93,83,30.06,29.78,8,3,9,0.00
2013-6-9,77.0,65.1,54.1,61.2,55.6,50.1,89,73,51,30.17,30.06,7,2,9,0.00
2013-6-10,68.1,63.8,57.9,65.4,61.8,56.3,98,93,83,30.08,29.67,9,2,13,0.01
2013-6-11,68.1,64.2,60.7,65.5,61.5,58.7,98,91,77,29.81,29.60,12,6,15,0.20
2013-6-12,80.2,66.0,53.9,61.9,57.2,52.5,98,75,47,29.90,29.73,3,0,9,0.02
2013-6-13,64.2,55.4,54.6,61.6,47.2,-99.9,100,89,86,29.75,29.44,5,-72,11,0.68
2013-6-14,70.1,61.1,52.9,62.0,57.2,52.6,99,88,66,29.95,29.75,8,3,12,0.00
2013-6-15,70.1,63.4,53.4,56.8,52.1,43.4,91,68,40,30.02,29.92,10,4,14,0.00
2013-6-16,72.9,65.9,62.1,66.7,59.8,52.5,96,81,70,29.92,29.67,14,6,19,0.05
2013-6-17,77.1,69.7,59.8,62.9,60.1,55.6,98,73,49,29.88,29.78,12,5,16,0.00
2013-6-18,69.6,63.5,52.0,58.5,53.1,48.1,93,70,50,29.99,29.92,4,1,11,0.00
2013-6-19,70.2,58.7,47.5,52.4,48.0,44.8,96,70,47,30.17,29.99,3,0,9,0.00
2013-6-20,78.7,62.2,44.9,57.6,50.0,43.1,97,67,42,30.22,30.16,4,0,9,0.00
2013-6-21,85.3,67.9,50.3,62.7,54.6,46.9,94,66,37,30.24,30.13,4,1,9,0.00
2013-6-22,85.4,74.8,59.5,68.3,63.6,57.2,93,70,53,30.14,29.95,9,4,19,0.00
2013-6-23,86.3,78.6,72.0,73.4,68.4,64.7,80,71,60,30.00,29.94,11,4,14,0.00
2013-6-24,85.1,78.0,71.5,70.1,66.4,63.2,81,68,54,29.99,29.88,15,5,20,0.00
2013-6-25,82.1,75.1,70.9,71.2,66.3,63.2,83,74,62,29.90,29.74,12,5,19,0.00
2013-6-26,80.6,73.5,68.1,70.1,66.4,63.4,89,79,65,29.78,29.73,9,5,12,0.00
2013-6-27,78.8,70.9,63.2,72.2,66.6,61.4,98,87,71,29.75,29.58,10,1,15,0.25
2013-6-28,69.9,64.8,60.6,67.7,64.1,60.5,100,97,91,29.59,29.44,6,1,9,0.71
2013-6-29,74.4,66.3,60.3,67.8,63.4,60.3,100,91,72,29.66,29.45,6,1,10,0.14
2013-6-30,79.3,68.1,57.2,69.5,63.5,56.6,100,86,67,29.88,29.66,3,0,9,0.00
2013-7-1,66.4,63.0,58.9,63.9,62.0,58.7,100,97,87,30.03,29.88,3,0,9,0.21
2013-7-2,83.6,67.1,58.1,75.6,65.3,58.1,100,94,74,30.06,29.98,2,0,9,0.15
2013-7-3,86.1,73.2,63.5,74.3,69.2,63.5,100,89,61,30.10,30.03,6,1,11,0.13
2013-7-4,84.1,74.8,69.3,72.0,69.8,67.4,97,85,59,30.12,30.04,7,2,10,0.00
2013-7-5,82.7,73.9,67.9,72.9,69.5,67.1,98,87,68,30.09,30.00,9,3,15,0.01
2013-7-6,87.4,76.0,68.2,75.0,68.9,65.4,95,80,58,30.10,29.97,5,1,9,0.00
2013-7-7,77.4,73.0,70.2,72.2,70.3,67.9,98,92,74,30.00,29.95,7,2,9,0.34
2013-7-8,81.7,76.3,70.3,72.1,69.1,66.9,91,79,67,30.00,29.93,7,3,9,0.00
2013-7-9,78.9,73.0,68.3,75.6,69.4,66.6,98,89,78,29.99,29.86,7,1,9,0.03
2013-7-10,81.5,77.5,74.2,73.4,71.6,70.1,90,82,76,29.78,29.73,10,8,18,0.00
2013-7-11,77.8,71.5,64.3,62.3,61.1,60.1,87,70,55,29.97,29.92,2,0,9,0.00
2013-7-13,82.0,76.9,70.5,71.3,69.7,68.3,94,79,66,30.20,30.15,3,1,9,0.00
2013-7-14,92.7,77.5,64.1,77.1,70.6,63.4,100,81,57,30.26,30.17,4,1,9,0.00
2013-7-15,88.1,77.1,70.4,76.2,71.5,66.7,96,84,65,30.24,30.17,3,0,9,0.00
2013-7-16,87.8,78.5,66.9,75.9,69.6,64.3,96,76,51,30.24,30.15,6,1,9,0.00
2013-7-17,89.8,81.7,72.6,78.1,73.5,68.3,90,77,55,30.18,30.02,10,4,13,0.00
2013-7-18,90.1,81.6,76.0,79.1,74.3,70.9,91,79,62,30.05,29.89,10,4,13,0.00
2013-7-19,89.1,81.1,66.6,75.7,71.5,65.4,97,74,54,29.90,29.66,13,7,23,1.33
2013-7-20,77.8,71.1,65.9,69.5,67.1,63.6,99,88,69,29.85,29.65,13,4,16,0.22
2013-7-21,80.7,70.0,61.7,68.6,63.5,60.2,97,81,61,29.96,29.85,2,0,9,0.00
2013-7-22,72.7,62.3,59.0,64.0,60.4,58.4,99,94,69,29.96,29.90,4,0,9,0.00
2013-7-30,74.1,67.9,61.4,61.6,59.4,56.6,88,75,56,30.13,30.10,8,2,11,0.00
2013-7-31,80.1,66.6,54.5,64.3,58.9,53.4,97,78,49,30.13,29.90,4,1,9,0.00
2013-8-1,65.8,62.7,59.9,64.0,60.9,58.2,98,94,88,29.90,29.71,6,1,11,0.12
2013-10-3,68.4,62.6,58.5,56.8,54.4,51.4,93,75,56,30.01,29.99,2,0,16,0.00
2013-10-4,72.6,65.9,58.2,68.6,64.4,56.0,100,95,85,30.02,29.95,6,1,16,0.43
2013-10-5,63.1,59.5,57.8,63.1,59.4,57.5,100,100,98,30.06,29.99,2,0,16,0.52
2013-10-6,81.0,68.8,57.7,70.8,64.5,57.7,100,87,65,29.99,29.69,8,2,16,0.20
2013-10-7,72.9,59.2,48.5,65.6,53.7,44.9,97,82,62,30.02,29.59,14,7,20,0.57
2013-10-8,63.5,52.1,44.1,49.5,46.1,42.4,96,81,54,30.33,30.02,6,1,16,0.00
2013-10-9,68.0,51.7,38.2,52.2,44.4,37.7,99,79,47,30.39,30.26,5,1,16,0.01
2013-10-10,68.9,52.6,40.2,49.5,43.5,37.6,94,74,39,30.26,30.14,4,0,16,0.00
2013-10-11,72.0,54.3,43.5,53.0,47.2,42.2,98,80,45,30.14,30.08,4,0,16,0.00
2013-10-12,76.2,58.3,41.9,55.5,43.9,39.9,100,66,28,30.18,30.10,6,1,16,0.00
2013-10-13,64.8,60.9,55.5,63.3,54.4,42.1,98,80,54,30.23,30.16,6,2,16,0.21
2013-10-14,61.3,54.7,45.9,58.5,52.1,44.3,99,91,75,30.31,30.22,5,1,16,0.07
2013-10-15,64.8,54.1,40.5,57.6,50.9,40.0,100,90,76,30.27,29.94,6,2,16,0.01
2013-10-16,64.9,60.5,56.5,58.6,54.7,51.4,95,81,73,29.94,29.73,10,7,16,0.20
2013-10-17,56.6,52.4,49.7,52.6,49.5,47.8,95,90,83,29.86,29.80,9,2,16,0.00
2013-10-29,50.4,42.3,29.9,35.2,32.0,28.4,95,68,51,30.47,30.30,4,0,16,0.00
2013-10-30,60.4,45.6,35.5,45.2,39.0,32.7,98,80,53,30.30,30.09,2,0,16,0.00
2013-10-31,67.4,56.6,38.6,59.9,52.6,36.7,99,87,71,30.09,29.37,14,6,19,0.61
2013-11-1,62.7,55.5,46.4,58.7,49.0,41.9,94,79,63,29.64,29.17,20,11,30,0.47
2013-11-2,49.1,43.8,34.7,45.2,41.9,33.9,98,93,83,29.99,29.57,8,3,16,0.14
2013-11-3,35.6,31.2,25.1,33.8,26.1,22.1,97,82,64,30.53,29.98,5,2,16,0.00
2013-11-4,40.9,32.1,21.3,27.0,22.4,18.9,96,70,46,30.66,30.45,7,2,16,0.00
2013-11-5,53.5,44.9,35.6,36.8,29.5,19.1,63,55,47,30.48,30.32,10,5,16,0.00
2013-11-6,66.6,55.2,45.9,56.2,45.4,34.6,92,70,56,30.32,29.78,12,6,18,0.06
2013-11-7,58.4,42.2,35.7,56.4,37.2,29.8,96,82,69,29.98,29.76,15,8,18,0.27
2013-11-8,39.4,35.9,33.4,32.0,29.8,27.7,88,79,66,30.23,29.95,14,7,23,0.00
2013-11-9,49.9,41.4,35.4,42.4,32.1,27.5,85,70,48,30.22,29.78,14,5,16,0.04
2013-11-10,48.5,42.3,36.8,43.1,35.0,29.2,88,75,64,30.16,29.76,21,13,27,0.12
2013-11-11,43.5,36.5,26.9,35.6,31.1,25.6,97,81,60,30.16,29.91,15,6,23,0.13
2013-11-12,28.7,25.7,23.0,26.3,20.9,16.5,95,82,68,30.40,30.11,12,6,16,0.00
2013-11-13,34.8,28.4,18.9,26.4,21.6,16.4,91,76,53,30.45,30.10,17,7,23,0.01
2013-11-14,48.5,40.2,33.3,24.7,19.7,15.5,64,45,29,30.12,30.01,16,11,22,0.00
2013-11-15,53.5,46.6,40.4,28.3,23.3,18.6,51,40,28,30.11,30.03,13,5,21,0.00
2013-11-16,58.0,48.8,34.7,42.7,36.5,27.3,84,63,47,30.22,30.02,8,2,16,0.00
2013-11-17,59.8,55.1,50.7,55.0,50.4,42.7,90,84,74,30.01,29.35,16,8,24,0.21
2013-11-18,55.1,43.9,34.2,47.4,36.3,26.5,87,75,68,29.90,29.33,20,14,30,0.03
2013-11-19,35.6,32.0,25.1,27.8,24.6,21.7,87,74,61,30.45,29.90,17,7,25,0.00
2013-11-20,38.9,28.6,19.1,28.4,22.2,17.2,95,78,58,30.60,30.45,5,1,16,0.00
2013-11-21,41.0,36.8,28.7,36.5,27.0,17.7,91,68,51,30.46,30.26,9,4,16,0.04
2013-11-22,46.0,41.3,39.2,45.2,40.1,36.6,99,96,90,30.25,30.06,4,2,16,0.06
2013-11-25,29.6,27.7,26.0,14.7,12.3,9.6,61,52,43,30.32,30.23,10,7,18,0.00
2013-12-13,16.0,13.5,10.5,13.3,11.2,7.4,92,90,87,30.42,30.21,3,0,16,0.00
2013-12-14,18.7,12.1,7.5,17.4,9.8,4.9,95,90,87,30.44,29.76,5,2,16,0.00
2013-12-15,23.2,21.2,17.2,22.0,18.8,9.3,96,91,70,29.88,29.64,15,5,20,0.00
2013-12-16,18.9,13.3,-2.1,13.8,9.0,-4.6,91,83,73,30.21,29.88,19,5,19,0.00
2013-12-17,27.8,16.5,-4.3,24.9,13.7,-7.2,95,89,83,30.18,29.94,11,2,17,0.00
2013-12-18,28.5,26.3,23.9,25.9,23.2,20.0,94,88,78,30.08,29.94,12,5,16,0.00
2013-12-19,40.0,35.1,24.2,33.8,27.6,17.6,91,74,62,30.05,29.90,14,4,17,0.22
2013-12-20,48.1,42.1,33.7,47.3,40.3,31.8,98,93,81,30.00,29.75,9,4,16,0.12
2013-12-21,54.7,45.1,31.0,53.1,44.1,30.8,99,96,91,29.85,29.71,10,4,16,0.60
2013-12-22,49.3,36.2,30.2,49.3,35.6,30.0,100,98,91,29.96,29.58,16,4,18,0.11
2013-12-23,39.7,33.2,22.8,37.1,29.0,18.1,94,85,71,30.25,29.94,14,8,19,0.00
2013-12-24,24.3,19.2,11.1,22.1,16.3,7.6,95,88,81,30.50,30.19,9,3,16,0.01
2013-12-25,24.0,13.7,0.7,15.8,8.8,-2.0,91,81,67,30.55,30.24,6,2,16,0.00
2013-12-26,31.1,26.1,22.5,27.3,21.7,15.7,94,83,70,30.29,30.07,16,6,26,0.00
2013-12-27,34.8,28.4,22.1,29.1,24.6,17.5,91,85,77,30.29,30.09,11,6,17,0.00
2013-12-28,45.4,40.4,35.0,34.6,31.7,28.2,85,71,59,30.09,29.93,14,8,22,0.01
2013-12-29,44.4,43.0,41.2,32.0,31.3,30.3,67,63,61,29.93,29.84,9,6,17,0.00